Time;durP1;ratioP1;P1;durP2;ratioP2;P2;SDS_P1;SDS_P2;PMS_P1;PMS_P2;Temp;Humidity;BMP_temperature;BMP_pressure;BME280_temperature;BME280_humidity;BME280_pressure;Samples;Min_cycle;Max_cycle;Signal;HPM_P1;HPM_P2
2022/12/12 02:34:31;;;;;;;1999.90;999.90;;;;;;;;;;5467966;22;20480;-70
2022/12/12 02:37:20;;;;;;;1999.90;999.90;;;;;;;;;;5071503;28;20232;-70
2022/12/12 02:40:10;;;;;;;1999.90;999.90;;;;;;;;;;5066686;28;20232;-69
2022/12/12 02:42:58;;;;;;;1999.90;999.90;;;;;;;;;;5054371;28;20225;-68
2022/12/12 02:45:46;;;;;;;1999.90;999.90;;;;;;;;;;5040559;28;20585;-70
2022/12/12 02:48:33;;;;;;;1999.90;999.90;;;;;;;;;;5053887;28;20217;-71
2022/12/12 02:51:20;;;;;;;1999.90;999.90;;;;;;;;;;5051363;28;20221;-71
2022/12/12 02:54:11;;;;;;;1999.90;999.90;;;;;;;;;;5049965;28;20225;-71
2022/12/12 02:56:57;;;;;;;1999.90;999.90;;;;;;;;;;5051257;28;20779;-71
2022/12/12 02:59:45;;;;;;;1999.90;999.90;;;;;;;;;;5040813;28;20209;-69
2022/12/12 03:02:48;;;;;;;1999.90;999.90;;;;;;;;;;5044542;28;20621;-71
2022/12/12 03:08:48;;;;;;;1999.90;999.90;;;;;;;;;;5035623;28;20259;-71
2022/12/12 03:11:40;;;;;;;1999.90;999.90;;;;;;;;;;5051050;28;20220;-71
2022/12/12 03:14:27;;;;;;;1999.90;999.90;;;;;;;;;;5053190;28;20644;-71
2022/12/12 03:17:15;;;;;;;1999.90;999.90;;;;;;;;;;5053463;28;20201;-71
2022/12/12 03:20:06;;;;;;;1999.90;999.90;;;;;;;;;;5053697;28;20670;-71
2022/12/12 03:22:54;;;;;;;1999.90;999.90;;;;;;;;;;5053311;28;20280;-71
2022/12/12 03:25:45;;;;;;;1999.90;999.90;;;;;;;;;;5053093;28;20877;-71
2022/12/12 03:28:31;;;;;;;1999.90;999.90;;;;;;;;;;5053106;28;20212;-72
2022/12/12 03:31:17;;;;;;;1999.90;999.90;;;;;;;;;;5053104;28;20208;-72
2022/12/12 03:34:04;;;;;;;1999.90;999.90;;;;;;;;;;5053010;28;20446;-71
2022/12/12 03:36:51;;;;;;;1999.90;999.90;;;;;;;;;;5053180;28;20209;-71
2022/12/12 03:39:38;;;;;;;1999.90;999.90;;;;;;;;;;5045653;28;20537;-71
2022/12/12 03:42:27;;;;;;;1999.90;999.90;;;;;;;;;;5039578;28;20464;-72
2022/12/12 03:45:14;;;;;;;1999.90;999.90;;;;;;;;;;5046041;28;20430;-72
2022/12/12 03:48:01;;;;;;;1999.90;999.90;;;;;;;;;;5032345;28;20434;-71
2022/12/12 03:50:50;;;;;;;1999.90;999.90;;;;;;;;;;5032340;28;20403;-71
2022/12/12 03:53:38;;;;;;;1999.90;999.90;;;;;;;;;;5048174;28;20563;-70
2022/12/12 03:56:26;;;;;;;1999.90;999.90;;;;;;;;;;5050073;28;20417;-70
2022/12/12 03:59:14;;;;;;;1999.90;999.90;;;;;;;;;;5037295;28;20433;-70
2022/12/12 04:02:01;;;;;;;1999.90;999.90;;;;;;;;;;5052174;28;20407;-69
2022/12/12 04:04:50;;;;;;;1999.90;999.90;;;;;;;;;;5052222;28;20546;-71
2022/12/12 04:07:37;;;;;;;1999.90;999.90;;;;;;;;;;5032819;28;20212;-71
2022/12/12 04:13:29;;;;;;;1999.90;999.90;;;;;;;;;;5032247;28;20865;-71
2022/12/12 04:16:16;;;;;;;1999.90;999.90;;;;;;;;;;5032291;28;20427;-71
2022/12/12 04:19:03;;;;;;;1999.90;999.90;;;;;;;;;;5031061;28;20397;-72
2022/12/12 04:24:57;;;;;;;1999.90;999.90;;;;;;;;;;5031893;28;20493;-71
2022/12/12 04:27:44;;;;;;;1999.90;999.90;;;;;;;;;;5039647;28;20970;-71
2022/12/12 04:30:31;;;;;;;1999.90;999.90;;;;;;;;;;5045699;28;20571;-71
2022/12/12 04:33:18;;;;;;;1999.90;999.90;;;;;;;;;;5050329;28;20554;-71
2022/12/12 04:36:04;;;;;;;1999.90;999.90;;;;;;;;;;5047572;28;20449;-73
2022/12/12 04:38:50;;;;;;;1999.90;999.90;;;;;;;;;;5049794;28;20539;-71
2022/12/12 04:41:36;;;;;;;1999.90;999.90;;;;;;;;;;5046012;28;20452;-71
2022/12/12 04:44:23;;;;;;;1999.90;999.90;;;;;;;;;;5049963;28;20465;-71
2022/12/12 04:47:09;;;;;;;1999.90;999.90;;;;;;;;;;5049343;28;20576;-71
2022/12/12 04:49:56;;;;;;;1999.90;999.90;;;;;;;;;;5049663;28;20457;-72
2022/12/12 04:52:42;;;;;;;1999.90;999.90;;;;;;;;;;5048507;28;20462;-72
2022/12/12 04:55:29;;;;;;;1999.90;999.90;;;;;;;;;;5048241;28;20456;-72
2022/12/12 04:58:14;;;;;;;1999.90;999.90;;;;;;;;;;5050399;28;20543;-71
2022/12/12 05:01:04;;;;;;;1999.90;999.90;;;;;;;;;;5042683;28;20468;-71
2022/12/12 05:03:50;;;;;;;1999.90;999.90;;;;;;;;;;5045717;28;20588;-72
2022/12/12 05:06:39;;;;;;;1999.90;999.90;;;;;;;;;;5048941;28;20448;-71
2022/12/12 05:09:25;;;;;;;1999.90;999.90;;;;;;;;;;5042121;28;21422;-71
2022/12/12 05:12:10;;;;;;;1999.90;999.90;;;;;;;;;;5047947;28;21008;-71
2022/12/12 05:14:55;;;;;;;1999.90;999.90;;;;;;;;;;5048823;28;20482;-71
2022/12/12 05:17:42;;;;;;;1999.90;999.90;;;;;;;;;;5042501;28;20526;-71
2022/12/12 05:20:27;;;;;;;1999.90;999.90;;;;;;;;;;5044785;28;20475;-71
2022/12/12 05:23:13;;;;;;;1999.90;999.90;;;;;;;;;;5048454;28;20225;-71
2022/12/12 05:25:58;;;;;;;1999.90;999.90;;;;;;;;;;5048845;28;20534;-71
2022/12/12 05:28:43;;;;;;;1999.90;999.90;;;;;;;;;;5042840;28;20458;-70
2022/12/12 05:31:28;;;;;;;1999.90;999.90;;;;;;;;;;5047609;28;20448;-71
2022/12/12 05:34:12;;;;;;;1999.90;999.90;;;;;;;;;;5039285;28;20468;-71
2022/12/12 05:36:57;;;;;;;1999.90;999.90;;;;;;;;;;5034823;28;20464;-71
2022/12/12 05:39:43;;;;;;;1999.90;999.90;;;;;;;;;;5047898;28;20974;-71
2022/12/12 05:42:28;;;;;;;1999.90;999.90;;;;;;;;;;5037457;28;20410;-71
2022/12/12 05:45:13;;;;;;;1999.90;999.90;;;;;;;;;;5036958;28;20294;-71
2022/12/12 05:47:58;;;;;;;1999.90;999.90;;;;;;;;;;5053385;28;20415;-73
2022/12/12 05:50:43;;;;;;;1999.90;999.90;;;;;;;;;;5053183;28;20900;-72
2022/12/12 05:53:28;;;;;;;1999.90;999.90;;;;;;;;;;5052768;28;20473;-73
2022/12/12 05:56:15;;;;;;;1999.90;999.90;;;;;;;;;;5034213;28;20415;-75
2022/12/12 05:59:00;;;;;;;1999.90;999.90;;;;;;;;;;5034065;28;20633;-74
2022/12/12 06:01:45;;;;;;;1999.90;999.90;;;;;;;;;;5050358;28;20423;-74
2022/12/12 06:04:29;;;;;;;1999.90;999.90;;;;;;;;;;5045620;28;20795;-73
2022/12/12 06:07:14;;;;;;;1999.90;999.90;;;;;;;;;;5044050;28;21075;-74
2022/12/12 06:09:59;;;;;;;1999.90;999.90;;;;;;;;;;5034018;28;20416;-73
2022/12/12 06:12:45;;;;;;;1999.90;999.90;;;;;;;;;;5033928;28;20453;-74
2022/12/12 06:15:30;;;;;;;1999.90;999.90;;;;;;;;;;5050443;28;20447;-74
2022/12/12 06:18:15;;;;;;;1999.90;999.90;;;;;;;;;;5043027;28;20561;-74
2022/12/12 06:21:04;;;;;;;1999.90;999.90;;;;;;;;;;5042244;28;20923;-74
2022/12/12 06:23:49;;;;;;;1999.90;999.90;;;;;;;;;;5033905;28;20496;-73
2022/12/12 06:26:34;;;;;;;1999.90;999.90;;;;;;;;;;5033749;28;20943;-73
2022/12/12 06:29:20;;;;;;;1999.90;999.90;;;;;;;;;;5041336;28;20412;-73
2022/12/12 06:32:06;;;;;;;1999.90;999.90;;;;;;;;;;5033394;28;20464;-75
2022/12/12 06:34:51;;;;;;;1999.90;999.90;;;;;;;;;;5045516;28;21000;-73
2022/12/12 06:37:36;;;;;;;1999.90;999.90;;;;;;;;;;5050132;28;20965;-72
2022/12/12 06:40:21;;;;;;;1999.90;999.90;;;;;;;;;;5048322;28;20598;-73
2022/12/12 06:43:06;;;;;;;1999.90;999.90;;;;;;;;;;5046780;28;20947;-72
2022/12/12 06:45:52;;;;;;;1999.90;999.90;;;;;;;;;;5053532;28;20276;-71
2022/12/12 06:48:37;;;;;;;1999.90;999.90;;;;;;;;;;5046112;28;20828;-71
2022/12/12 06:51:23;;;;;;;1999.90;999.90;;;;;;;;;;5052695;28;20486;-72
2022/12/12 06:54:08;;;;;;;1999.90;999.90;;;;;;;;;;5044092;28;20483;-71
2022/12/12 06:56:53;;;;;;;1999.90;999.90;;;;;;;;;;5049985;28;20435;-71
2022/12/12 06:59:39;;;;;;;1999.90;999.90;;;;;;;;;;5038564;28;20610;-72
2022/12/12 07:02:25;;;;;;;1999.90;999.90;;;;;;;;;;5043391;28;20399;-72
2022/12/12 07:05:10;;;;;;;1999.90;999.90;;;;;;;;;;5045781;28;21019;-72
2022/12/12 07:07:54;;;;;;;1999.90;999.90;;;;;;;;;;5033163;28;20203;-72
2022/12/12 07:10:39;;;;;;;1999.90;999.90;;;;;;;;;;5048398;28;21052;-73
2022/12/12 07:13:24;;;;;;;1999.90;999.90;;;;;;;;;;5051162;28;20479;-73
2022/12/12 07:16:09;;;;;;;1999.90;999.90;;;;;;;;;;5051061;28;20420;-72
2022/12/12 07:18:56;;;;;;;1999.90;999.90;;;;;;;;;;5035106;28;20424;-72
2022/12/12 07:21:40;;;;;;;1999.90;999.90;;;;;;;;;;5033182;28;20428;-72
2022/12/12 07:24:26;;;;;;;1999.90;999.90;;;;;;;;;;5045021;28;20447;-71
2022/12/12 07:27:11;;;;;;;1999.90;999.90;;;;;;;;;;5043180;28;20966;-72
2022/12/12 07:29:56;;;;;;;1999.90;999.90;;;;;;;;;;5053979;28;20458;-72
2022/12/12 07:32:40;;;;;;;1999.90;999.90;;;;;;;;;;5036118;28;20454;-72
2022/12/12 07:35:28;;;;;;;1999.90;999.90;;;;;;;;;;5050098;28;20450;-71
2022/12/12 07:38:13;;;;;;;1999.90;999.90;;;;;;;;;;5039230;28;20446;-71
2022/12/12 07:41:02;;;;;;;1999.90;999.90;;;;;;;;;;5047978;28;20983;-71
2022/12/12 07:43:48;;;;;;;1999.90;999.90;;;;;;;;;;5037114;28;20532;-71
2022/12/12 07:46:33;;;;;;;1999.90;999.90;;;;;;;;;;5046869;28;20894;-71
2022/12/12 07:49:18;;;;;;;1999.90;999.90;;;;;;;;;;5048866;28;20424;-72
2022/12/12 07:52:05;;;;;;;1999.90;999.90;;;;;;;;;;5049456;28;20530;-72
2022/12/12 07:54:49;;;;;;;1999.90;999.90;;;;;;;;;;5050451;28;20478;-71
2022/12/12 07:57:34;;;;;;;1999.90;999.90;;;;;;;;;;5044223;28;20533;-72
2022/12/12 08:00:20;;;;;;;1999.90;999.90;;;;;;;;;;5048691;28;20445;-72
2022/12/12 08:03:05;;;;;;;1999.90;999.90;;;;;;;;;;5047312;28;20436;-73
2022/12/12 08:05:50;;;;;;;1999.90;999.90;;;;;;;;;;5048530;28;20209;-72
2022/12/12 08:08:36;;;;;;;1999.90;999.90;;;;;;;;;;5041916;28;20448;-72
2022/12/12 08:11:23;;;;;;;1999.90;999.90;;;;;;;;;;5045709;28;20453;-76
2022/12/12 08:14:08;;;;;;;1999.90;999.90;;;;;;;;;;5042906;28;20466;-74
2022/12/12 08:16:53;;;;;;;1999.90;999.90;;;;;;;;;;5044037;28;20454;-74
2022/12/12 08:19:38;;;;;;;1999.90;999.90;;;;;;;;;;5044352;28;20439;-73
2022/12/12 08:22:23;;;;;;;1999.90;999.90;;;;;;;;;;5047925;28;20448;-74
2022/12/12 08:25:09;;;;;;;1999.90;999.90;;;;;;;;;;5039380;28;20562;-73
2022/12/12 08:27:54;;;;;;;1999.90;999.90;;;;;;;;;;5042153;28;20210;-73
2022/12/12 08:30:39;;;;;;;1999.90;999.90;;;;;;;;;;5049370;28;20541;-73
2022/12/12 08:33:24;;;;;;;1999.90;999.90;;;;;;;;;;5042212;28;20487;-72
2022/12/12 08:36:13;;;;;;;1999.90;999.90;;;;;;;;;;5044577;28;20975;-75
2022/12/12 08:38:58;;;;;;;1999.90;999.90;;;;;;;;;;5041062;28;20510;-74
2022/12/12 08:41:46;;;;;;;1999.90;999.90;;;;;;;;;;5047064;28;21054;-74
2022/12/12 08:44:31;;;;;;;1999.90;999.90;;;;;;;;;;5040349;28;20458;-74
2022/12/12 08:47:16;;;;;;;1999.90;999.90;;;;;;;;;;5041188;28;20443;-73
2022/12/12 08:50:01;;;;;;;1999.90;999.90;;;;;;;;;;5047857;28;20455;-72
2022/12/12 08:52:46;;;;;;;1999.90;999.90;;;;;;;;;;5044096;28;20820;-73
2022/12/12 08:55:31;;;;;;;1999.90;999.90;;;;;;;;;;5050202;28;20418;-73
2022/12/12 08:58:17;;;;;;;1999.90;999.90;;;;;;;;;;5051576;28;20556;-73
2022/12/12 09:01:02;;;;;;;1999.90;999.90;;;;;;;;;;5042071;28;20565;-73
2022/12/12 09:03:47;;;;;;;1999.90;999.90;;;;;;;;;;5047370;28;20485;-73
2022/12/12 09:06:32;;;;;;;1999.90;999.90;;;;;;;;;;5048266;28;20444;-73
2022/12/12 09:09:17;;;;;;;1999.90;999.90;;;;;;;;;;5048037;28;20428;-73
2022/12/12 09:12:02;;;;;;;1999.90;999.90;;;;;;;;;;5049291;28;20967;-72
2022/12/12 09:14:48;;;;;;;1999.90;999.90;;;;;;;;;;5038299;28;20471;-73
2022/12/12 09:17:33;;;;;;;1999.90;999.90;;;;;;;;;;5038775;28;20795;-73
2022/12/12 09:20:18;;;;;;;1999.90;999.90;;;;;;;;;;5047493;28;20486;-73
2022/12/12 09:23:03;;;;;;;1999.90;999.90;;;;;;;;;;5046154;28;20892;-72
2022/12/12 09:25:48;;;;;;;1999.90;999.90;;;;;;;;;;5053017;28;20229;-73
2022/12/12 09:28:33;;;;;;;1999.90;999.90;;;;;;;;;;5050456;28;20415;-72
2022/12/12 09:31:19;;;;;;;1999.90;999.90;;;;;;;;;;5034953;28;20410;-72
2022/12/12 09:34:05;;;;;;;1999.90;999.90;;;;;;;;;;5034486;28;20851;-73
2022/12/12 09:36:50;;;;;;;1999.90;999.90;;;;;;;;;;5047242;28;20423;-73
2022/12/12 09:39:35;;;;;;;1999.90;999.90;;;;;;;;;;5053932;28;20417;-73
2022/12/12 09:42:21;;;;;;;1999.90;999.90;;;;;;;;;;5053565;28;21044;-72
2022/12/12 09:45:07;;;;;;;1999.90;999.90;;;;;;;;;;5050905;28;20816;-73
2022/12/12 09:47:56;;;;;;;1999.90;999.90;;;;;;;;;;5047550;28;20455;-73
2022/12/12 09:50:44;;;;;;;1999.90;999.90;;;;;;;;;;5049485;28;20207;-72
2022/12/12 09:53:30;;;;;;;1999.90;999.90;;;;;;;;;;5045545;28;22134;-74
2022/12/12 09:56:17;;;;;;;1999.90;999.90;;;;;;;;;;5044510;28;20784;-73
2022/12/12 09:59:05;;;;;;;1999.90;999.90;;;;;;;;;;5046015;28;20467;-72
2022/12/12 10:01:55;;;;;;;1999.90;999.90;;;;;;;;;;5049306;28;20447;-73
2022/12/12 10:04:46;;;;;;;1999.90;999.90;;;;;;;;;;5048513;28;20430;-73
2022/12/12 10:07:35;;;;;;;1999.90;999.90;;;;;;;;;;5043554;28;20477;-73
2022/12/12 10:10:21;;;;;;;1999.90;999.90;;;;;;;;;;5043051;28;20518;-73
2022/12/12 10:13:13;;;;;;;1999.90;999.90;;;;;;;;;;5051093;28;20997;-74
2022/12/12 10:16:01;;;;;;;1999.90;999.90;;;;;;;;;;5054513;28;20424;-74
2022/12/12 10:18:48;;;;;;;1999.90;999.90;;;;;;;;;;5054538;28;20565;-73
2022/12/12 10:21:39;;;;;;;1999.90;999.90;;;;;;;;;;5050292;28;20505;-73
2022/12/12 10:24:28;;;;;;;1999.90;999.90;;;;;;;;;;5045641;28;20919;-73
2022/12/12 10:27:14;;;;;;;1999.90;999.90;;;;;;;;;;5054378;28;20497;-73
2022/12/12 10:30:00;;;;;;;1999.90;999.90;;;;;;;;;;5053887;28;20475;-73
2022/12/12 10:33:00;;;;;;;1999.90;999.90;;;;;;;;;;5034861;28;20401;-72
2022/12/12 10:35:51;;;;;;;1999.90;999.90;;;;;;;;;;5053764;28;20415;-73
2022/12/12 10:38:47;;;;;;;1999.90;999.90;;;;;;;;;;5052217;28;20455;-74
2022/12/12 10:41:36;;;;;;;1999.90;999.90;;;;;;;;;;5039299;28;20506;-73
2022/12/12 10:44:26;;;;;;;1999.90;999.90;;;;;;;;;;5053391;28;20428;-72
2022/12/12 10:47:11;;;;;;;1999.90;999.90;;;;;;;;;;5051370;28;20455;-72
2022/12/12 10:49:59;;;;;;;1999.90;999.90;;;;;;;;;;5047673;28;20821;-74
2022/12/12 10:52:44;;;;;;;1999.90;999.90;;;;;;;;;;5046787;28;20451;-73
2022/12/12 10:55:37;;;;;;;1999.90;999.90;;;;;;;;;;5045540;28;20467;-72
2022/12/12 10:58:24;;;;;;;1999.90;999.90;;;;;;;;;;5050821;28;20454;-73
2022/12/12 11:01:17;;;;;;;1999.90;999.90;;;;;;;;;;5051451;28;20416;-72
2022/12/12 11:04:03;;;;;;;1999.90;999.90;;;;;;;;;;5044511;28;20509;-72
2022/12/12 11:06:50;;;;;;;1999.90;999.90;;;;;;;;;;5052005;28;20483;-72
2022/12/12 11:09:37;;;;;;;1999.90;999.90;;;;;;;;;;5048436;28;20265;-72
2022/12/12 11:12:31;;;;;;;1999.90;999.90;;;;;;;;;;5051766;28;20598;-72
2022/12/12 11:15:17;;;;;;;1999.90;999.90;;;;;;;;;;5048118;28;21286;-73
2022/12/12 11:18:02;;;;;;;1999.90;999.90;;;;;;;;;;5044763;28;20463;-72
2022/12/12 11:20:48;;;;;;;1999.90;999.90;;;;;;;;;;5051102;28;20444;-73
2022/12/12 11:23:33;;;;;;;1999.90;999.90;;;;;;;;;;5037657;28;20472;-73
2022/12/12 11:26:19;;;;;;;1999.90;999.90;;;;;;;;;;5048821;28;20814;-72
2022/12/12 11:29:06;;;;;;;1999.90;999.90;;;;;;;;;;5049936;28;21076;-71
2022/12/12 11:31:50;;;;;;;1999.90;999.90;;;;;;;;;;5048306;28;20420;-72
2022/12/12 11:34:37;;;;;;;1999.90;999.90;;;;;;;;;;5051695;28;20568;-72
2022/12/12 11:37:23;;;;;;;1999.90;999.90;;;;;;;;;;5053102;28;20451;-72
2022/12/12 11:40:19;;;;;;;1999.90;999.90;;;;;;;;;;5046262;28;21029;-72
2022/12/12 11:43:13;;;;;;;1999.90;999.90;;;;;;;;;;5052479;28;20443;-73
2022/12/12 11:46:02;;;;;;;1999.90;999.90;;;;;;;;;;5052544;28;20405;-72
2022/12/12 11:48:55;;;;;;;1999.90;999.90;;;;;;;;;;5052756;28;20561;-74
2022/12/12 11:51:41;;;;;;;1999.90;999.90;;;;;;;;;;5052734;28;20530;-73
2022/12/12 11:54:29;;;;;;;1999.90;999.90;;;;;;;;;;5052265;28;20551;-73
2022/12/12 11:57:19;;;;;;;1999.90;999.90;;;;;;;;;;5049273;28;21107;-73
2022/12/12 12:00:06;;;;;;;1999.90;999.90;;;;;;;;;;5052670;28;20423;-73
2022/12/12 12:03:07;;;;;;;1999.90;999.90;;;;;;;;;;5052382;28;20532;-73
2022/12/12 12:05:57;;;;;;;1999.90;999.90;;;;;;;;;;5048480;28;20580;-74
2022/12/12 12:08:49;;;;;;;1999.90;999.90;;;;;;;;;;5048022;28;20220;-74
2022/12/12 12:11:40;;;;;;;1999.90;999.90;;;;;;;;;;5050109;28;20811;-74
2022/12/12 12:14:36;;;;;;;1999.90;999.90;;;;;;;;;;5043453;28;20496;-74
2022/12/12 12:17:26;;;;;;;1999.90;999.90;;;;;;;;;;5052331;28;20417;-73
2022/12/12 12:20:19;;;;;;;1999.90;999.90;;;;;;;;;;5051938;28;20459;-73
2022/12/12 12:23:10;;;;;;;1999.90;999.90;;;;;;;;;;5064082;28;20447;-73
2022/12/12 12:25:58;;;;;;;1999.90;999.90;;;;;;;;;;5071956;28;20411;-73
2022/12/12 12:29:02;;;;;;;1999.90;999.90;;;;;;;;;;5044833;28;20422;-73
2022/12/12 12:31:53;;;;;;;1999.90;999.90;;;;;;;;;;5044087;28;20219;-73
2022/12/12 12:34:43;;;;;;;1999.90;999.90;;;;;;;;;;5048903;28;20469;-73
2022/12/12 12:37:34;;;;;;;1999.90;999.90;;;;;;;;;;5031927;28;20413;-75
2022/12/12 12:40:29;;;;;;;1999.90;999.90;;;;;;;;;;5030482;28;20424;-73
2022/12/12 12:43:22;;;;;;;1999.90;999.90;;;;;;;;;;5031547;28;20489;-74
2022/12/12 12:46:12;;;;;;;1999.90;999.90;;;;;;;;;;5031981;28;20408;-73
2022/12/12 12:48:59;;;;;;;1999.90;999.90;;;;;;;;;;5031076;28;20567;-73
2022/12/12 12:51:46;;;;;;;1999.90;999.90;;;;;;;;;;5031736;28;20409;-73
2022/12/12 12:54:36;;;;;;;1999.90;999.90;;;;;;;;;;5037001;28;20492;-72
2022/12/12 12:57:24;;;;;;;1999.90;999.90;;;;;;;;;;5050108;28;20538;-73
2022/12/12 13:00:15;;;;;;;1999.90;999.90;;;;;;;;;;5048283;28;20399;-72
2022/12/12 13:03:02;;;;;;;1999.90;999.90;;;;;;;;;;5041641;28;21166;-74
2022/12/12 13:05:50;;;;;;;1999.90;999.90;;;;;;;;;;5042830;28;20789;-73
2022/12/12 13:08:39;;;;;;;1999.90;999.90;;;;;;;;;;5059266;28;20430;-73
2022/12/12 13:11:27;;;;;;;1999.90;999.90;;;;;;;;;;5060169;28;20945;-73
2022/12/12 13:14:15;;;;;;;1999.90;999.90;;;;;;;;;;5057872;28;20507;-74
2022/12/12 13:17:05;;;;;;;1999.90;999.90;;;;;;;;;;5050967;28;20422;-74
2022/12/12 13:19:52;;;;;;;1999.90;999.90;;;;;;;;;;5049292;28;20417;-73
2022/12/12 13:22:41;;;;;;;1999.90;999.90;;;;;;;;;;5050474;28;20428;-72
2022/12/12 13:25:32;;;;;;;1999.90;999.90;;;;;;;;;;5052548;28;20403;-73
2022/12/12 13:28:20;;;;;;;1999.90;999.90;;;;;;;;;;5068227;28;20588;-73
2022/12/12 13:31:16;;;;;;;1999.90;999.90;;;;;;;;;;5058495;28;20452;-72
2022/12/12 13:34:02;;;;;;;1999.90;999.90;;;;;;;;;;5059991;28;20514;-72
2022/12/12 13:36:49;;;;;;;1999.90;999.90;;;;;;;;;;5047010;28;20569;-73
2022/12/12 13:39:34;;;;;;;1999.90;999.90;;;;;;;;;;5047883;28;20470;-72
2022/12/12 13:42:19;;;;;;;1999.90;999.90;;;;;;;;;;5045183;28;20220;-72
2022/12/12 13:45:19;;;;;;;1999.90;999.90;;;;;;;;;;5055333;28;20410;-72
2022/12/12 13:48:06;;;;;;;1999.90;999.90;;;;;;;;;;5053765;28;20406;-73
2022/12/12 13:51:06;;;;;;;1999.90;999.90;;;;;;;;;;5049334;28;20203;-73
2022/12/12 13:54:13;;;;;;;1999.90;999.90;;;;;;;;;;5063460;28;20437;-73
2022/12/12 13:57:10;;;;;;;1999.90;999.90;;;;;;;;;;5055942;28;20422;-72
2022/12/12 14:00:09;;;;;;;1999.90;999.90;;;;;;;;;;5061157;28;20522;-73
2022/12/12 14:02:59;;;;;;;1999.90;999.90;;;;;;;;;;5069038;28;20433;-73
2022/12/12 14:05:45;;;;;;;1999.90;999.90;;;;;;;;;;5053781;28;20458;-73
2022/12/12 14:08:31;;;;;;;1999.90;999.90;;;;;;;;;;5064428;28;20413;-71
2022/12/12 14:11:26;;;;;;;1999.90;999.90;;;;;;;;;;5052358;28;20418;-73
2022/12/12 14:14:20;;;;;;;1999.90;999.90;;;;;;;;;;5059023;28;20809;-73
2022/12/12 14:17:05;;;;;;;1999.90;999.90;;;;;;;;;;5061361;28;20941;-72
2022/12/12 14:19:52;;;;;;;1999.90;999.90;;;;;;;;;;5072269;28;20419;-74
2022/12/12 14:22:52;;;;;;;1999.90;999.90;;;;;;;;;;5074497;28;20416;-74
2022/12/12 14:25:37;;;;;;;1999.90;999.90;;;;;;;;;;5074341;28;20432;-74
2022/12/12 14:28:24;;;;;;;1999.90;999.90;;;;;;;;;;5074326;28;20933;-72
2022/12/12 14:31:13;;;;;;;1999.90;999.90;;;;;;;;;;5074539;28;20806;-72
2022/12/12 14:34:04;;;;;;;1999.90;999.90;;;;;;;;;;5073999;28;20598;-72
2022/12/12 14:37:01;;;;;;;1999.90;999.90;;;;;;;;;;5055847;28;20416;-72
2022/12/12 14:39:59;;;;;;;1999.90;999.90;;;;;;;;;;5052898;28;20405;-72
2022/12/12 14:42:53;;;;;;;1999.90;999.90;;;;;;;;;;5054343;28;20221;-72
2022/12/12 14:45:39;;;;;;;1999.90;999.90;;;;;;;;;;5053730;28;20416;-73
2022/12/12 14:48:26;;;;;;;1999.90;999.90;;;;;;;;;;5053855;28;20418;-74
2022/12/12 14:51:14;;;;;;;1999.90;999.90;;;;;;;;;;5054121;28;20426;-73
2022/12/12 14:54:01;;;;;;;1999.90;999.90;;;;;;;;;;5054083;28;21016;-71
2022/12/12 14:56:49;;;;;;;1999.90;999.90;;;;;;;;;;5046297;28;20854;-72
2022/12/12 14:59:36;;;;;;;1999.90;999.90;;;;;;;;;;5035234;28;20433;-71
2022/12/12 15:02:23;;;;;;;1999.90;999.90;;;;;;;;;;5035559;28;20933;-73
2022/12/12 15:05:09;;;;;;;1999.90;999.90;;;;;;;;;;5032070;28;20410;-71
2022/12/12 15:07:57;;;;;;;1999.90;999.90;;;;;;;;;;5032782;28;20598;-71
2022/12/12 15:10:42;;;;;;;1999.90;999.90;;;;;;;;;;5044456;28;20433;-71
2022/12/12 15:13:27;;;;;;;1999.90;999.90;;;;;;;;;;5033371;28;20441;-71
2022/12/12 15:16:12;;;;;;;1999.90;999.90;;;;;;;;;;5046496;28;20476;-71
2022/12/12 15:18:58;;;;;;;1999.90;999.90;;;;;;;;;;5049739;28;20475;-72
2022/12/12 15:21:45;;;;;;;1999.90;999.90;;;;;;;;;;5050809;28;20842;-72
2022/12/12 15:24:36;;;;;;;1999.90;999.90;;;;;;;;;;5040872;28;20464;-72
2022/12/12 15:27:23;;;;;;;1999.90;999.90;;;;;;;;;;5035498;28;20986;-72
2022/12/12 15:30:11;;;;;;;1999.90;999.90;;;;;;;;;;5045991;28;20437;-71
2022/12/12 15:32:57;;;;;;;1999.90;999.90;;;;;;;;;;5050810;28;20441;-74
2022/12/12 15:35:48;;;;;;;1999.90;999.90;;;;;;;;;;5050653;28;21079;-73
2022/12/12 15:38:34;;;;;;;1999.90;999.90;;;;;;;;;;5051139;28;20507;-73
2022/12/12 15:41:20;;;;;;;1999.90;999.90;;;;;;;;;;5043520;28;20418;-73
2022/12/12 15:44:06;;;;;;;1999.90;999.90;;;;;;;;;;5032279;28;20492;-73
2022/12/12 15:46:51;;;;;;;1999.90;999.90;;;;;;;;;;5032288;28;20482;-72
2022/12/12 15:49:37;;;;;;;1999.90;999.90;;;;;;;;;;5032145;28;20417;-72
2022/12/12 15:52:25;;;;;;;1999.90;999.90;;;;;;;;;;5032254;28;20427;-73
2022/12/12 15:55:18;;;;;;;1999.90;999.90;;;;;;;;;;5031711;28;20612;-73
2022/12/12 15:58:03;;;;;;;1999.90;999.90;;;;;;;;;;5035909;28;21000;-74
2022/12/12 16:00:50;;;;;;;1999.90;999.90;;;;;;;;;;5031845;28;20484;-74
2022/12/12 16:03:35;;;;;;;1999.90;999.90;;;;;;;;;;5037891;28;20464;-73
2022/12/12 16:06:22;;;;;;;1999.90;999.90;;;;;;;;;;5046855;28;20210;-73
2022/12/12 16:09:08;;;;;;;1999.90;999.90;;;;;;;;;;5046586;28;20432;-73
2022/12/12 16:11:55;;;;;;;1999.90;999.90;;;;;;;;;;5046005;28;20447;-73
2022/12/12 16:14:40;;;;;;;1999.90;999.90;;;;;;;;;;5046799;28;20471;-73
2022/12/12 16:17:27;;;;;;;1999.90;999.90;;;;;;;;;;5048789;28;21019;-73
2022/12/12 16:20:13;;;;;;;1999.90;999.90;;;;;;;;;;5049383;28;20455;-74
2022/12/12 16:23:08;;;;;;;1999.90;999.90;;;;;;;;;;5050986;28;20439;-72
2022/12/12 16:25:53;;;;;;;1999.90;999.90;;;;;;;;;;5047516;28;20447;-73
2022/12/12 16:28:39;;;;;;;1999.90;999.90;;;;;;;;;;5045768;28;20705;-73
2022/12/12 16:31:24;;;;;;;1999.90;999.90;;;;;;;;;;5047396;28;20464;-74
2022/12/12 16:34:09;;;;;;;1999.90;999.90;;;;;;;;;;5050459;28;20460;-73
2022/12/12 16:36:54;;;;;;;1999.90;999.90;;;;;;;;;;5042665;28;20603;-73
2022/12/12 16:39:38;;;;;;;1999.90;999.90;;;;;;;;;;5032342;28;20431;-74
2022/12/12 16:42:23;;;;;;;1999.90;999.90;;;;;;;;;;5049758;28;20446;-72
2022/12/12 16:45:10;;;;;;;1999.90;999.90;;;;;;;;;;5050272;28;20470;-75
2022/12/12 16:47:55;;;;;;;1999.90;999.90;;;;;;;;;;5052710;28;20427;-73
2022/12/12 16:50:40;;;;;;;1999.90;999.90;;;;;;;;;;5047013;28;20603;-72
2022/12/12 16:53:26;;;;;;;1999.90;999.90;;;;;;;;;;5046509;28;20481;-73
2022/12/12 16:56:11;;;;;;;1999.90;999.90;;;;;;;;;;5048389;28;20471;-73
2022/12/12 16:58:56;;;;;;;1999.90;999.90;;;;;;;;;;5050807;28;20964;-73
2022/12/12 17:01:42;;;;;;;1999.90;999.90;;;;;;;;;;5049814;28;20453;-72
2022/12/12 17:04:27;;;;;;;1999.90;999.90;;;;;;;;;;5031462;28;20456;-74
2022/12/12 17:07:13;;;;;;;1999.90;999.90;;;;;;;;;;5051221;28;20427;-72
2022/12/12 17:09:58;;;;;;;1999.90;999.90;;;;;;;;;;5050415;28;20450;-73
2022/12/12 17:12:43;;;;;;;1999.90;999.90;;;;;;;;;;5043745;28;20454;-72
2022/12/12 17:15:29;;;;;;;1999.90;999.90;;;;;;;;;;5040174;28;20455;-74
2022/12/12 17:18:15;;;;;;;1999.90;999.90;;;;;;;;;;5044499;28;21526;-71
2022/12/12 17:21:00;;;;;;;1999.90;999.90;;;;;;;;;;5047647;28;20442;-72
2022/12/12 17:23:45;;;;;;;1999.90;999.90;;;;;;;;;;5050169;28;20444;-72
2022/12/12 17:26:30;;;;;;;1999.90;999.90;;;;;;;;;;5048240;28;20200;-73
2022/12/12 17:29:14;;;;;;;1999.90;999.90;;;;;;;;;;5051492;28;20518;-72
2022/12/12 17:31:59;;;;;;;1999.90;999.90;;;;;;;;;;5053421;28;20555;-72
2022/12/12 17:34:46;;;;;;;1999.90;999.90;;;;;;;;;;5054936;28;20461;-73
2022/12/12 17:37:31;;;;;;;1999.90;999.90;;;;;;;;;;5046848;28;20532;-72
2022/12/12 17:40:16;;;;;;;1999.90;999.90;;;;;;;;;;5054133;28;20535;-71
2022/12/12 17:43:02;;;;;;;1999.90;999.90;;;;;;;;;;5054838;28;20447;-73
2022/12/12 17:45:56;;;;;;;1999.90;999.90;;;;;;;;;;5054560;28;20408;-72
2022/12/12 17:48:42;;;;;;;1999.90;999.90;;;;;;;;;;5055119;28;20202;-71
2022/12/12 17:51:29;;;;;;;1999.90;999.90;;;;;;;;;;5055082;28;20466;-73
2022/12/12 17:54:14;;;;;;;1999.90;999.90;;;;;;;;;;5054613;28;20525;-71
2022/12/12 17:56:59;;;;;;;1999.90;999.90;;;;;;;;;;5038456;28;20486;-72
2022/12/12 17:59:43;;;;;;;1999.90;999.90;;;;;;;;;;5040639;28;20446;-73
2022/12/12 18:02:29;;;;;;;1999.90;999.90;;;;;;;;;;5046677;28;20451;-74
2022/12/12 18:05:18;;;;;;;1999.90;999.90;;;;;;;;;;5051722;28;20968;-73
2022/12/12 18:08:05;;;;;;;1999.90;999.90;;;;;;;;;;5038306;28;20592;-73
2022/12/12 18:10:49;;;;;;;1999.90;999.90;;;;;;;;;;5053167;28;20546;-72
2022/12/12 18:13:35;;;;;;;1999.90;999.90;;;;;;;;;;5039452;28;20953;-73
2022/12/12 18:16:20;;;;;;;1999.90;999.90;;;;;;;;;;5041814;28;20469;-74